createdAt,value
2017-04-11T00:00:39.530Z,2.72
2017-04-11T00:01:44.070Z,3.32
2017-04-11T00:02:48.016Z,3.07
2017-04-11T00:03:51.690Z,2.78
2017-04-11T00:04:55.443Z,2.67
2017-04-11T00:05:59.396Z,2.67
2017-04-11T00:07:03.090Z,3.15
2017-04-11T00:08:07.295Z,3.37
2017-04-11T00:09:11.188Z,2.80
2017-04-11T00:10:15.705Z,3.35
2017-04-11T00:11:19.551Z,2.72
2017-04-11T00:12:23.605Z,2.83
2017-04-11T00:13:27.544Z,2.28
2017-04-11T00:14:31.489Z,3.00
2017-04-11T00:15:35.304Z,3.08
2017-04-11T00:16:39.022Z,2.80
2017-04-11T00:17:43.440Z,3.25
2017-04-11T00:18:47.468Z,3.12
2017-04-11T00:19:51.281Z,1.97
2017-04-11T00:20:55.048Z,2.62
2017-04-11T00:21:58.874Z,3.12
2017-04-11T00:23:02.629Z,3.00
2017-04-11T00:24:06.121Z,3.50
2017-04-11T00:25:10.131Z,3.03
2017-04-11T00:26:13.853Z,3.22
2017-04-11T00:27:17.831Z,2.52
2017-04-11T00:28:21.842Z,2.40
2017-04-11T00:29:26.487Z,2.78
2017-04-11T00:30:30.694Z,2.98
2017-04-11T00:31:34.651Z,2.88
2017-04-11T00:32:38.501Z,3.33
2017-04-11T00:33:41.913Z,3.10
2017-04-11T00:34:45.812Z,2.32
2017-04-11T00:35:49.590Z,2.30
2017-04-11T00:36:53.592Z,3.35
2017-04-11T00:37:57.333Z,2.37
2017-04-11T00:39:01.224Z,2.30
2017-04-11T00:40:05.202Z,1.90
2017-04-11T00:41:08.904Z,2.50
2017-04-11T00:42:12.621Z,2.10
2017-04-11T00:43:16.749Z,2.58
2017-04-11T00:44:20.506Z,2.45
2017-04-11T00:45:24.113Z,1.73
2017-04-11T00:46:27.914Z,2.82
2017-04-11T00:47:31.522Z,2.33
2017-04-11T00:48:35.619Z,2.38
2017-04-11T00:49:39.435Z,2.48
2017-04-11T00:50:43.129Z,2.75
2017-04-11T00:51:47.740Z,2.57
2017-04-11T00:52:51.848Z,2.57
2017-04-11T00:53:55.567Z,2.48
2017-04-11T00:54:59.605Z,2.72
2017-04-11T00:56:03.307Z,2.35
2017-04-11T00:57:07.199Z,2.82
2017-04-11T00:58:10.674Z,3.38
2017-04-11T00:59:15.278Z,1.90
2017-04-11T01:00:19.282Z,2.52
2017-04-11T01:01:23.513Z,2.67
2017-04-11T01:02:27.662Z,2.53
2017-04-11T01:03:31.578Z,2.60
2017-04-11T01:04:35.465Z,2.68
2017-04-11T01:05:39.430Z,2.88
2017-04-11T01:06:43.382Z,2.58
2017-04-11T01:07:47.124Z,3.20
2017-04-11T01:08:51.370Z,2.75
2017-04-11T01:09:55.180Z,3.10
2017-04-11T01:10:59.865Z,2.95
2017-04-11T01:12:03.950Z,2.67
2017-04-11T01:13:08.186Z,2.82
2017-04-11T01:14:12.006Z,2.20
2017-04-11T01:15:16.176Z,1.78
2017-04-11T01:16:19.864Z,2.72
2017-04-11T01:17:24.003Z,2.73
2017-04-11T01:18:27.841Z,2.70
2017-04-11T01:19:31.677Z,3.10
2017-04-11T01:20:35.666Z,2.18
2017-04-11T01:21:39.401Z,1.97
2017-04-11T01:22:43.553Z,2.70
2017-04-11T01:23:47.440Z,2.65
2017-04-11T01:24:51.201Z,2.82
2017-04-11T01:25:55.533Z,2.85
2017-04-11T01:26:59.271Z,2.52
2017-04-11T01:28:03.511Z,2.92
2017-04-11T01:29:07.863Z,3.00
2017-04-11T01:30:12.018Z,2.63
2017-04-11T01:31:16.716Z,2.77
2017-04-11T01:32:20.433Z,2.87
2017-04-11T01:33:24.693Z,2.80
2017-04-11T01:34:28.766Z,2.80
2017-04-11T01:35:32.627Z,2.97
2017-04-11T01:36:36.315Z,2.83
2017-04-11T01:37:40.364Z,2.75
2017-04-11T01:38:44.497Z,1.98
2017-04-11T01:39:48.437Z,2.68
2017-04-11T01:40:52.394Z,2.42
2017-04-11T01:41:56.105Z,2.30
2017-04-11T01:42:59.606Z,2.30
2017-04-11T01:44:04.527Z,3.05
2017-04-11T01:45:08.081Z,2.63
2017-04-11T01:46:11.707Z,2.67
2017-04-11T01:47:15.382Z,2.72
2017-04-11T01:48:19.383Z,2.35
2017-04-11T01:49:23.049Z,2.15
2017-04-11T01:50:26.769Z,2.98
2017-04-11T01:51:30.607Z,2.35
2017-04-11T01:52:34.096Z,2.80
2017-04-11T01:53:38.052Z,2.87
2017-04-11T01:54:41.848Z,2.53
2017-04-11T01:55:45.913Z,2.28
2017-04-11T01:56:49.725Z,2.02
2017-04-11T01:57:53.579Z,2.75
2017-04-11T01:58:57.630Z,3.02
2017-04-11T02:00:01.470Z,2.17
2017-04-11T02:01:05.656Z,3.02
2017-04-11T02:02:09.727Z,2.95
2017-04-11T02:03:14.654Z,2.65
2017-04-11T02:04:18.263Z,3.65
2017-04-11T02:05:22.584Z,2.90
2017-04-11T02:06:26.346Z,2.18
2017-04-11T02:07:30.072Z,1.92
2017-04-11T02:08:34.025Z,2.32
2017-04-11T02:09:37.673Z,2.52
2017-04-11T02:10:41.682Z,2.88
2017-04-11T02:11:46.471Z,2.57
2017-04-11T02:12:50.446Z,2.97
2017-04-11T02:13:53.926Z,1.72
2017-04-11T02:14:57.625Z,2.08
2017-04-11T02:16:01.675Z,1.90
2017-04-11T02:17:06.251Z,2.25
2017-04-11T02:18:09.758Z,3.07
2017-04-11T02:19:13.760Z,2.20
2017-04-11T02:20:17.428Z,1.90
2017-04-11T02:21:20.903Z,2.17
2017-04-11T02:22:24.744Z,1.92
2017-04-11T02:23:28.640Z,2.25
2017-04-11T02:24:32.694Z,2.53
2017-04-11T02:25:36.733Z,2.23
2017-04-11T02:26:40.600Z,2.05
2017-04-11T02:27:44.287Z,2.35
2017-04-11T02:28:49.366Z,1.98
2017-04-11T02:29:53.144Z,2.35
2017-04-11T02:30:57.421Z,2.55
2017-04-11T02:32:01.537Z,1.95
2017-04-11T02:33:05.382Z,2.30
2017-04-11T02:34:09.196Z,2.12
2017-04-11T02:35:12.922Z,2.78
2017-04-11T02:36:16.889Z,2.25
2017-04-11T02:37:21.022Z,2.03
2017-04-11T02:38:24.894Z,1.83
2017-04-11T02:39:28.213Z,1.95
2017-04-11T02:40:31.979Z,2.40
2017-04-11T02:41:36.830Z,2.20
2017-04-11T02:42:40.749Z,2.17
2017-04-11T02:43:44.696Z,2.13
2017-04-11T02:44:48.171Z,2.52
2017-04-11T02:45:52.163Z,1.73
2017-04-11T02:46:55.997Z,1.98
2017-04-11T02:47:59.913Z,2.95
2017-04-11T02:49:04.469Z,2.05
2017-04-11T02:50:07.977Z,2.02
2017-04-11T02:51:12.215Z,2.02
2017-04-11T02:52:16.998Z,2.43
2017-04-11T02:53:21.086Z,2.28
2017-04-11T02:54:24.956Z,2.37
2017-04-11T02:55:28.920Z,2.35
2017-04-11T02:56:32.830Z,2.30
2017-04-11T02:57:36.645Z,1.90
2017-04-11T02:58:40.389Z,2.48
2017-04-11T02:59:43.950Z,2.80
2017-04-11T03:00:47.813Z,1.97
2017-04-11T03:01:51.596Z,2.22
2017-04-11T03:02:55.466Z,2.00
2017-04-11T03:03:59.515Z,2.22
2017-04-11T03:05:04.059Z,2.47
2017-04-11T03:06:08.062Z,2.83
2017-04-11T03:07:12.065Z,2.65
2017-04-11T03:08:15.946Z,3.25
2017-04-11T03:09:19.977Z,2.97
2017-04-11T03:10:23.990Z,3.17
2017-04-11T03:11:27.759Z,3.38
2017-04-11T03:12:32.483Z,3.13
2017-04-11T03:13:36.312Z,3.42
2017-04-11T03:14:40.518Z,4.35
2017-04-11T03:15:44.593Z,3.75
2017-04-11T03:16:48.180Z,3.67
2017-04-11T03:17:52.805Z,3.22
2017-04-11T03:18:56.479Z,3.63
2017-04-11T03:20:00.637Z,3.82
2017-04-11T03:21:04.570Z,3.50
2017-04-11T03:22:08.497Z,3.97
2017-04-11T03:23:13.283Z,3.32
2017-04-11T03:24:17.319Z,4.35
2017-04-11T03:25:21.306Z,3.53
2017-04-11T03:26:25.184Z,3.55
2017-04-11T03:27:29.172Z,3.40
2017-04-11T03:28:33.227Z,3.92
2017-04-11T03:29:37.095Z,3.68
2017-04-11T03:30:41.290Z,3.78
2017-04-11T03:31:44.923Z,4.35
2017-04-11T03:32:48.140Z,3.37
2017-04-11T03:33:52.098Z,3.55
2017-04-11T03:34:56.086Z,3.78
2017-04-11T03:36:00.032Z,3.73
2017-04-11T03:37:04.129Z,4.42
2017-04-11T03:38:07.861Z,3.45
2017-04-11T03:39:11.788Z,4.55
2017-04-11T03:40:15.746Z,3.55
2017-04-11T03:41:20.373Z,5.02
2017-04-11T03:42:25.133Z,4.83
2017-04-11T03:43:28.891Z,5.02
2017-04-11T03:44:33.028Z,5.37
2017-04-11T03:45:36.682Z,5.68
2017-04-11T03:46:40.481Z,5.80
2017-04-11T03:47:44.401Z,6.88
2017-04-11T03:48:48.381Z,6.98
2017-04-11T03:49:52.582Z,7.75
2017-04-11T03:50:56.776Z,7.33
2017-04-11T03:52:00.474Z,8.68
2017-04-11T03:53:04.495Z,10.97
2017-04-11T03:54:08.559Z,12.72
2017-04-11T03:55:12.544Z,11.93
2017-04-11T03:56:16.382Z,13.72
2017-04-11T03:57:20.143Z,14.18
2017-04-11T03:58:25.020Z,13.38
2017-04-11T03:59:28.853Z,14.63
2017-04-11T04:00:33.618Z,11.33
2017-04-11T04:01:37.622Z,12.17
2017-04-11T04:02:41.760Z,8.40
2017-04-11T04:03:45.787Z,11.40
2017-04-11T04:04:49.935Z,9.57
2017-04-11T04:05:53.517Z,11.00
2017-04-11T04:06:57.469Z,9.97
2017-04-11T04:08:01.381Z,9.62
2017-04-11T04:09:05.402Z,10.42
2017-04-11T04:10:09.215Z,10.55
2017-04-11T04:11:13.082Z,9.35
2017-04-11T04:12:17.050Z,10.02
2017-04-11T04:13:22.267Z,10.82
2017-04-11T04:14:25.801Z,8.72
2017-04-11T04:15:29.552Z,9.15
2017-04-11T04:16:34.029Z,9.35
2017-04-11T04:17:37.999Z,7.77
2017-04-11T04:18:42.288Z,9.62
2017-04-11T04:19:47.266Z,8.45
2017-04-11T04:20:51.280Z,8.92
2017-04-11T04:21:55.261Z,9.80
2017-04-11T04:22:59.416Z,6.93
2017-04-11T04:24:04.513Z,12.25
2017-04-11T04:25:08.920Z,11.45
2017-04-11T04:26:12.583Z,12.28
2017-04-11T04:27:16.523Z,12.15
2017-04-11T04:28:20.390Z,6.40
2017-04-11T04:29:24.127Z,8.60
2017-04-11T04:30:28.233Z,8.97
2017-04-11T04:31:32.060Z,11.97
2017-04-11T04:32:35.992Z,11.77
2017-04-11T04:33:39.794Z,10.12
2017-04-11T04:34:43.991Z,9.97
2017-04-11T04:35:47.615Z,8.53
2017-04-11T04:36:51.326Z,7.60
2017-04-11T04:37:55.287Z,7.75
2017-04-11T04:38:58.874Z,7.73
2017-04-11T04:40:02.617Z,7.28
2017-04-11T04:41:06.597Z,5.52
2017-04-11T04:42:10.659Z,6.00
2017-04-11T04:43:14.472Z,6.27
2017-04-11T04:44:18.086Z,6.57
2017-04-11T04:45:23.176Z,5.63
2017-04-11T04:46:26.955Z,6.77
2017-04-11T04:47:30.811Z,7.33
2017-04-11T04:48:34.493Z,7.60
2017-04-11T04:49:38.297Z,6.08
2017-04-11T04:50:41.852Z,6.85
2017-04-11T04:51:46.041Z,6.62
2017-04-11T04:52:49.742Z,8.18
2017-04-11T04:53:53.734Z,6.92
2017-04-11T04:54:57.300Z,6.97
2017-04-11T04:56:01.225Z,5.43
2017-04-11T04:57:05.092Z,27.43
2017-04-11T04:58:09.080Z,19.87
2017-04-11T04:59:12.576Z,8.78
2017-04-11T05:00:16.322Z,6.68
2017-04-11T05:01:20.186Z,7.35
2017-04-11T05:02:24.236Z,5.27
2017-04-11T05:03:27.981Z,6.82
2017-04-11T05:04:31.471Z,9.00
2017-04-11T05:05:35.285Z,11.92
2017-04-11T05:06:39.375Z,10.50
2017-04-11T05:07:43.089Z,10.22
2017-04-11T05:08:46.986Z,8.82
2017-04-11T05:09:50.887Z,9.22
2017-04-11T05:10:54.510Z,11.65
2017-04-11T05:11:58.495Z,14.48
2017-04-11T05:13:02.428Z,12.78
2017-04-11T05:14:07.429Z,12.17
2017-04-11T05:15:11.128Z,9.87
2017-04-11T05:16:14.943Z,9.20
2017-04-11T05:17:19.020Z,9.63
2017-04-11T05:18:23.079Z,8.63
2017-04-11T05:19:27.382Z,8.43
2017-04-11T05:20:30.897Z,8.07
2017-04-11T05:21:34.594Z,8.00
2017-04-11T05:22:38.586Z,7.18
2017-04-11T05:23:42.464Z,6.93
2017-04-11T05:24:46.112Z,7.08
2017-04-11T05:25:50.126Z,6.63
2017-04-11T05:26:53.920Z,6.45
2017-04-11T05:27:57.941Z,6.85
2017-04-11T05:29:01.534Z,6.15
2017-04-11T05:30:06.090Z,6.78
2017-04-11T05:31:09.610Z,6.22
2017-04-11T05:32:13.156Z,6.20
2017-04-11T05:33:17.870Z,6.40
2017-04-11T05:34:21.705Z,5.82
2017-04-11T05:35:25.385Z,6.50
2017-04-11T05:36:29.273Z,6.78
2017-04-11T05:37:33.328Z,10.30
2017-04-11T05:38:37.015Z,11.05
2017-04-11T05:39:41.019Z,10.88
2017-04-11T05:40:44.856Z,9.78
2017-04-11T05:41:48.742Z,9.20
2017-04-11T05:42:52.683Z,9.47
2017-04-11T05:43:56.431Z,9.67
2017-04-11T05:45:01.086Z,9.03
2017-04-11T05:46:04.896Z,14.17
2017-04-11T05:47:08.869Z,25.93
2017-04-11T05:48:12.752Z,20.07
2017-04-11T05:49:16.575Z,19.88
2017-04-11T05:50:20.607Z,24.70
2017-04-11T05:51:24.544Z,26.37
2017-04-11T05:52:28.439Z,16.43
2017-04-11T05:53:32.427Z,16.88
2017-04-11T05:54:36.195Z,15.63
2017-04-11T05:55:39.943Z,20.45
2017-04-11T05:56:43.738Z,19.13
2017-04-11T05:57:47.530Z,20.32
2017-04-11T05:58:51.353Z,18.95
2017-04-11T05:59:55.371Z,15.95
2017-04-11T06:00:59.039Z,15.83
2017-04-11T06:02:03.040Z,17.82
2017-04-11T06:03:06.856Z,20.30
2017-04-11T06:04:10.509Z,22.53
2017-04-11T06:05:14.745Z,22.55
2017-04-11T06:06:18.499Z,21.57
2017-04-11T06:07:23.450Z,19.47
2017-04-11T06:08:27.421Z,17.50
2017-04-11T06:09:31.202Z,15.60
2017-04-11T06:10:35.415Z,13.52
2017-04-11T06:11:38.976Z,11.30
2017-04-11T06:12:42.756Z,10.45
2017-04-11T06:13:46.664Z,11.13
2017-04-11T06:14:50.784Z,9.50
2017-04-11T06:15:54.927Z,8.83
2017-04-11T06:16:59.051Z,7.85
2017-04-11T06:18:03.147Z,8.37
2017-04-11T06:19:06.553Z,8.78
2017-04-11T06:20:10.359Z,8.37
2017-04-11T06:21:14.004Z,7.67
2017-04-11T06:22:17.583Z,9.07
2017-04-11T06:23:22.358Z,10.72
2017-04-11T06:24:26.328Z,10.90
2017-04-11T06:25:30.259Z,7.60
2017-04-11T06:26:34.046Z,7.13
2017-04-11T06:27:38.126Z,8.20
2017-04-11T06:28:41.828Z,8.73
2017-04-11T06:29:45.517Z,7.87
2017-04-11T06:30:49.093Z,9.33
2017-04-11T06:31:52.799Z,9.55
2017-04-11T06:32:56.755Z,9.32
2017-04-11T06:34:00.769Z,9.13
2017-04-11T06:35:04.420Z,9.22
2017-04-11T06:36:08.961Z,11.18
2017-04-11T06:37:13.077Z,11.63
2017-04-11T06:38:16.930Z,12.55
2017-04-11T06:39:20.530Z,12.25
2017-04-11T06:40:24.436Z,11.87
2017-04-11T06:41:28.271Z,11.50
2017-04-11T06:42:32.664Z,7.82
2017-04-11T06:43:36.609Z,7.95
2017-04-11T06:44:40.569Z,7.65
2017-04-11T06:45:44.206Z,8.28
2017-04-11T06:46:47.876Z,9.52
2017-04-11T06:47:51.560Z,10.37
2017-04-11T06:48:55.655Z,8.92
2017-04-11T06:50:00.068Z,8.12
2017-04-11T06:51:03.838Z,8.22
2017-04-11T06:52:07.720Z,7.53
2017-04-11T06:53:11.852Z,7.90
2017-04-11T06:54:15.734Z,8.72
2017-04-11T06:55:18.842Z,31.83
2017-04-11T06:56:22.986Z,11.48
2017-04-11T06:57:26.501Z,12.58
2017-04-11T06:58:31.238Z,10.57
2017-04-11T06:59:35.150Z,10.43
2017-04-11T07:00:38.278Z,6.52
2017-04-11T07:01:42.525Z,6.50
2017-04-11T07:02:54.922Z,6.13
2017-04-11T07:03:58.669Z,7.95
2017-04-11T07:05:02.613Z,6.97
2017-04-11T07:06:06.596Z,7.42
2017-04-11T07:07:10.425Z,6.83
2017-04-11T07:08:14.202Z,7.80
2017-04-11T07:09:18.214Z,7.75
2017-04-11T07:10:22.026Z,8.73
2017-04-11T07:11:26.025Z,7.87
2017-04-11T07:12:29.770Z,9.87
2017-04-11T07:13:33.266Z,8.65
2017-04-11T07:14:37.128Z,9.12
2017-04-11T07:15:41.638Z,9.82
2017-04-11T07:16:45.779Z,8.77
2017-04-11T07:17:49.701Z,9.75
2017-04-11T07:18:53.404Z,9.63
2017-04-11T07:19:56.882Z,13.13
2017-04-11T07:21:00.780Z,17.78
2017-04-11T07:22:04.629Z,20.02
2017-04-11T07:23:08.352Z,18.72
2017-04-11T07:24:13.090Z,12.58
2017-04-11T07:25:16.990Z,11.65
2017-04-11T07:26:20.750Z,11.97
2017-04-11T07:27:24.618Z,10.95
2017-04-11T07:28:28.562Z,18.10
2017-04-11T07:29:32.201Z,11.00
2017-04-11T07:30:36.684Z,10.05
2017-04-11T07:31:40.377Z,12.00
2017-04-11T07:32:43.987Z,11.27
2017-04-11T07:33:48.022Z,19.32
2017-04-11T07:34:51.536Z,15.78
2017-04-11T07:35:55.647Z,15.38
2017-04-11T07:36:59.801Z,14.73
2017-04-11T07:38:03.793Z,12.32
2017-04-11T07:39:10.210Z,8.85
2017-04-11T07:40:14.084Z,13.42
2017-04-11T07:41:18.570Z,8.87
2017-04-11T07:42:22.445Z,7.72
2017-04-11T07:43:26.550Z,7.53
2017-04-11T07:44:30.630Z,8.37
2017-04-11T07:45:34.277Z,7.13
2017-04-11T07:46:38.047Z,8.02
2017-04-11T07:47:41.798Z,7.25
2017-04-11T07:48:45.212Z,7.45
2017-04-11T07:49:49.299Z,7.07
2017-04-11T07:50:54.014Z,8.53
2017-04-11T07:51:58.013Z,11.58
2017-04-11T07:53:01.923Z,12.93
2017-04-11T07:54:05.791Z,11.57
2017-04-11T07:55:09.550Z,13.40
2017-04-11T07:56:13.268Z,12.55
2017-04-11T07:57:17.257Z,10.70
2017-04-11T07:58:21.446Z,8.12
2017-04-11T07:59:25.455Z,9.32
2017-04-11T08:00:29.166Z,11.23
2017-04-11T08:01:32.813Z,13.08
2017-04-11T08:02:36.931Z,17.15
2017-04-11T08:03:40.751Z,14.00
2017-04-11T08:04:44.433Z,12.58
2017-04-11T08:05:48.016Z,11.13
2017-04-11T08:06:51.682Z,10.00
2017-04-11T08:07:55.716Z,9.23
2017-04-11T08:08:59.409Z,8.57
2017-04-11T08:10:02.949Z,7.80
2017-04-11T08:11:07.441Z,7.35
2017-04-11T08:12:11.165Z,7.95
2017-04-11T08:13:15.035Z,8.95
2017-04-11T08:14:18.889Z,9.05
2017-04-11T08:15:22.692Z,11.48
2017-04-11T08:16:27.034Z,11.55
2017-04-11T08:17:30.927Z,11.35
2017-04-11T08:18:34.536Z,9.33
2017-04-11T08:19:38.481Z,9.10
2017-04-11T08:20:42.590Z,8.93
2017-04-11T08:21:46.468Z,8.18
2017-04-11T08:22:50.264Z,8.85
2017-04-11T08:23:54.088Z,8.03
2017-04-11T08:24:57.732Z,8.15
2017-04-11T08:26:01.542Z,8.97
2017-04-11T08:27:05.596Z,8.85
2017-04-11T08:28:09.277Z,7.38
2017-04-11T08:29:13.314Z,8.23
2017-04-11T08:30:17.213Z,8.35
2017-04-11T08:31:21.138Z,7.20
2017-04-11T08:32:25.205Z,8.88
2017-04-11T08:33:28.791Z,8.52
2017-04-11T08:34:32.666Z,8.85
2017-04-11T08:35:36.481Z,13.30
2017-04-11T08:36:40.551Z,13.70
2017-04-11T08:37:44.548Z,12.67
2017-04-11T08:38:48.460Z,13.95
2017-04-11T08:39:52.395Z,9.95
2017-04-11T08:40:56.270Z,10.32
2017-04-11T08:42:00.809Z,17.42
2017-04-11T08:43:04.799Z,13.80
2017-04-11T08:44:08.480Z,11.53
2017-04-11T08:45:12.448Z,14.75
2017-04-11T08:46:16.305Z,14.38
2017-04-11T08:47:19.877Z,15.27
2017-04-11T08:48:23.274Z,14.37
2017-04-11T08:49:27.598Z,18.87
2017-04-11T08:50:31.866Z,32.58
2017-04-11T08:51:35.893Z,44.40
2017-04-11T08:52:39.840Z,41.38
2017-04-11T08:53:43.731Z,49.97
2017-04-11T08:54:47.695Z,43.22
2017-04-11T08:55:51.420Z,39.63
2017-04-11T08:56:55.491Z,37.75
2017-04-11T08:57:59.435Z,30.82
2017-04-11T08:59:03.411Z,21.85
2017-04-11T09:00:07.215Z,28.05
2017-04-11T09:01:11.227Z,31.92
2017-04-11T09:02:14.959Z,40.07
2017-04-11T09:03:18.820Z,30.20
2017-04-11T09:04:22.584Z,32.43
2017-04-11T09:05:26.466Z,26.35
2017-04-11T09:06:30.217Z,37.63
2017-04-11T09:07:34.224Z,32.72
2017-04-11T09:08:38.018Z,24.68
2017-04-11T09:09:41.539Z,21.30
2017-04-11T09:10:45.006Z,15.77
2017-04-11T09:11:49.074Z,17.05
2017-04-11T09:12:52.837Z,12.53
2017-04-11T09:13:56.686Z,12.78
2017-04-11T09:15:00.592Z,11.63
2017-04-11T09:16:04.288Z,11.45
2017-04-11T09:17:09.183Z,9.12
2017-04-11T09:18:12.735Z,9.28
2017-04-11T09:19:16.566Z,8.75
2017-04-11T09:20:20.487Z,10.20
2017-04-11T09:21:24.980Z,10.15
2017-04-11T09:22:28.888Z,9.28
2017-04-11T09:23:32.562Z,8.95
2017-04-11T09:24:36.209Z,9.08
2017-04-11T09:25:40.335Z,9.08
2017-04-11T09:26:44.002Z,7.83
2017-04-11T09:27:47.987Z,8.53
2017-04-11T09:28:51.783Z,9.82
2017-04-11T09:29:55.735Z,8.20
2017-04-11T09:30:59.744Z,8.77
2017-04-11T09:32:03.532Z,9.35
2017-04-11T09:33:06.837Z,8.05
2017-04-11T09:34:10.849Z,8.53
2017-04-11T09:35:14.828Z,8.25
2017-04-11T09:36:19.579Z,7.95
2017-04-11T09:37:23.307Z,7.22
2017-04-11T09:38:27.189Z,6.90
2017-04-11T09:39:31.205Z,6.85
2017-04-11T09:40:35.162Z,6.55
2017-04-11T09:41:38.992Z,7.52
2017-04-11T09:42:43.160Z,7.03
2017-04-11T09:43:47.409Z,6.75
2017-04-11T09:44:51.413Z,6.57
2017-04-11T09:45:55.465Z,7.55
2017-04-11T09:46:59.659Z,7.03
2017-04-11T09:48:03.477Z,7.80
2017-04-11T09:49:07.173Z,6.90
2017-04-11T09:50:11.333Z,7.40
2017-04-11T09:51:15.984Z,6.50
2017-04-11T09:52:19.659Z,6.38
2017-04-11T09:53:23.191Z,6.35
2017-04-11T09:54:27.098Z,5.52
2017-04-11T09:55:30.507Z,6.62
2017-04-11T09:56:34.085Z,6.17
2017-04-11T09:57:37.864Z,5.55
2017-04-11T09:58:41.759Z,5.35
2017-04-11T09:59:45.819Z,5.70
2017-04-11T10:00:49.368Z,8.05
2017-04-11T10:01:53.500Z,8.10
2017-04-11T10:02:57.487Z,7.38
2017-04-11T10:04:01.324Z,7.10
2017-04-11T10:05:05.309Z,8.02
2017-04-11T10:06:09.048Z,7.08
2017-04-11T10:07:13.070Z,6.62
2017-04-11T10:08:16.997Z,7.05
2017-04-11T10:09:20.806Z,7.20
2017-04-11T10:10:24.725Z,6.90
2017-04-11T10:11:28.374Z,7.18
2017-04-11T10:12:32.150Z,8.75
2017-04-11T10:13:36.073Z,10.70
2017-04-11T10:14:39.934Z,12.68
2017-04-11T10:15:43.883Z,10.27
2017-04-11T10:16:48.699Z,9.85
2017-04-11T10:17:53.317Z,10.53
2017-04-11T10:18:57.352Z,11.62
2017-04-11T10:20:01.359Z,13.55
2017-04-11T10:21:06.134Z,10.77
2017-04-11T10:22:09.807Z,11.12
2017-04-11T10:23:14.438Z,10.95
2017-04-11T10:24:18.174Z,13.92
2017-04-11T10:25:22.136Z,13.75
2017-04-11T10:26:25.938Z,10.93
2017-04-11T10:27:29.726Z,10.05
2017-04-11T10:28:33.418Z,8.50
2017-04-11T10:29:37.080Z,11.47
2017-04-11T10:30:41.022Z,10.95
2017-04-11T10:31:45.149Z,11.98
2017-04-11T10:32:49.133Z,11.88
2017-04-11T10:33:53.130Z,13.07
2017-04-11T10:34:57.092Z,11.42
2017-04-11T10:36:01.075Z,12.10
2017-04-11T10:37:04.823Z,9.92
2017-04-11T10:38:08.642Z,10.25
2017-04-11T10:39:12.269Z,8.85
2017-04-11T10:40:16.061Z,10.92
2017-04-11T10:41:19.989Z,9.72
2017-04-11T10:42:23.879Z,8.92
2017-04-11T10:43:27.535Z,7.65
2017-04-11T10:44:31.593Z,8.50
2017-04-11T10:45:35.293Z,9.03
2017-04-11T10:46:39.146Z,8.37
2017-04-11T10:47:42.605Z,10.82
2017-04-11T10:48:46.371Z,9.00
2017-04-11T10:49:50.553Z,8.02
2017-04-11T10:50:54.535Z,9.28
2017-04-11T10:51:57.991Z,7.65
2017-04-11T10:53:01.652Z,8.37
2017-04-11T10:54:05.355Z,9.73
2017-04-11T10:55:09.355Z,6.20
2017-04-11T10:56:12.974Z,8.72
2017-04-11T10:57:17.481Z,9.80
2017-04-11T10:58:21.743Z,10.25
2017-04-11T10:59:25.726Z,8.87
2017-04-11T11:00:29.614Z,8.90
2017-04-11T11:01:33.502Z,7.18
2017-04-11T11:02:37.659Z,8.03
2017-04-11T11:03:41.795Z,11.15
2017-04-11T11:04:45.387Z,9.83
2017-04-11T11:05:48.905Z,10.55
2017-04-11T11:06:53.221Z,8.62
2017-04-11T11:07:57.077Z,8.82
2017-04-11T11:09:00.859Z,8.93
2017-04-11T11:10:04.725Z,10.65
2017-04-11T11:11:08.745Z,10.72
2017-04-11T11:12:12.266Z,13.60
2017-04-11T11:13:16.201Z,11.35
2017-04-11T11:14:20.236Z,13.82
2017-04-11T11:15:23.761Z,14.32
2017-04-11T11:16:27.301Z,7.08
2017-04-11T11:17:31.962Z,8.90
2017-04-11T11:18:36.665Z,11.60
2017-04-11T11:19:40.242Z,10.90
2017-04-11T11:20:43.921Z,11.20
2017-04-11T11:21:47.482Z,15.60
2017-04-11T11:22:51.273Z,14.47
2017-04-11T11:23:55.173Z,12.57
2017-04-11T11:24:59.065Z,11.28
2017-04-11T11:26:02.756Z,9.80
2017-04-11T11:27:06.096Z,13.88
2017-04-11T11:28:09.789Z,11.93
2017-04-11T11:29:13.570Z,11.85
2017-04-11T11:30:17.185Z,16.38
2017-04-11T11:31:21.227Z,16.43
2017-04-11T11:32:25.154Z,16.62
2017-04-11T11:33:29.035Z,16.55
2017-04-11T11:34:33.686Z,15.75
2017-04-11T11:35:37.759Z,16.35
2017-04-11T11:36:41.430Z,17.35
2017-04-11T11:37:45.177Z,14.17
2017-04-11T11:38:49.025Z,12.27
2017-04-11T11:39:52.850Z,18.08
2017-04-11T11:40:56.787Z,13.73
2017-04-11T11:42:00.609Z,17.67
2017-04-11T11:43:04.794Z,15.45
2017-04-11T11:44:08.611Z,17.03
2017-04-11T11:45:12.307Z,17.47
2017-04-11T11:46:16.729Z,19.35
2017-04-11T11:47:21.425Z,11.77
2017-04-11T11:48:25.159Z,14.72
2017-04-11T11:49:29.014Z,14.23
2017-04-11T11:50:33.229Z,16.42
2017-04-11T11:51:36.963Z,14.05
2017-04-11T11:52:40.406Z,15.25
2017-04-11T11:53:44.298Z,14.33
2017-04-11T11:54:48.780Z,12.57
2017-04-11T11:55:52.754Z,12.05
2017-04-11T11:56:56.578Z,9.88
2017-04-11T11:58:00.365Z,10.13
2017-04-11T11:59:04.413Z,10.05
2017-04-11T12:00:08.105Z,9.97
2017-04-11T12:01:11.976Z,8.30
2017-04-11T12:02:15.940Z,8.38
2017-04-11T12:03:20.001Z,7.95
2017-04-11T12:04:23.961Z,8.32
2017-04-11T12:05:27.634Z,8.07
2017-04-11T12:06:31.632Z,7.90
2017-04-11T12:07:35.319Z,8.38
2017-04-11T12:08:39.692Z,7.77
2017-04-11T12:09:43.461Z,8.45
2017-04-11T12:10:46.972Z,6.43
2017-04-11T12:11:50.856Z,6.20
2017-04-11T12:12:54.985Z,6.42
2017-04-11T12:13:59.079Z,6.90
2017-04-11T12:15:03.245Z,7.83
2017-04-11T12:16:08.182Z,7.85
2017-04-11T12:17:11.935Z,6.07
2017-04-11T12:18:15.664Z,7.17
2017-04-11T12:19:21.192Z,8.18
2017-04-11T12:20:25.039Z,7.97
2017-04-11T12:21:29.118Z,7.47
2017-04-11T12:22:32.924Z,6.00
2017-04-11T12:23:36.953Z,6.50
2017-04-11T12:24:41.179Z,6.20
2017-04-11T12:25:45.861Z,7.67
2017-04-11T12:26:49.950Z,6.35
2017-04-11T12:27:53.700Z,6.85
2017-04-11T12:28:57.289Z,8.50
2017-04-11T12:30:00.632Z,8.85
2017-04-11T12:31:04.164Z,7.78
2017-04-11T12:32:07.710Z,6.45
2017-04-11T12:33:11.432Z,7.57
2017-04-11T12:34:15.549Z,6.42
2017-04-11T12:35:19.084Z,7.83
2017-04-11T12:36:23.016Z,4.82
2017-04-11T12:37:26.988Z,7.38
2017-04-11T12:38:30.817Z,7.60
2017-04-11T12:39:34.506Z,8.40
2017-04-11T12:40:38.696Z,7.67
2017-04-11T12:41:42.167Z,6.08
2017-04-11T12:42:46.043Z,7.43
2017-04-11T12:43:49.773Z,8.90
2017-04-11T12:44:53.859Z,7.82
2017-04-11T12:45:57.716Z,6.00
2017-04-11T12:47:01.507Z,5.92
2017-04-11T12:48:05.509Z,7.80
2017-04-11T12:49:09.245Z,7.33
2017-04-11T12:50:13.026Z,7.15
2017-04-11T12:51:17.106Z,6.15
2017-04-11T12:52:20.730Z,7.10
2017-04-11T12:53:23.937Z,7.52
2017-04-11T12:54:27.715Z,7.13
2017-04-11T12:56:45.159Z,7.63
2017-04-11T12:57:48.989Z,6.73
2017-04-11T12:58:52.757Z,8.57
2017-04-11T12:59:56.485Z,9.02
2017-04-11T13:01:01.272Z,6.08
2017-04-11T13:02:05.045Z,7.02
2017-04-11T13:03:09.166Z,8.27
2017-04-11T13:04:12.598Z,8.75
2017-04-11T13:05:16.539Z,10.13
2017-04-11T13:06:21.336Z,10.03
2017-04-11T13:07:25.316Z,8.52
2017-04-11T13:08:29.179Z,7.42
2017-04-11T13:09:32.829Z,9.07
2017-04-11T13:10:36.383Z,8.70
2017-04-11T13:11:40.124Z,10.08
2017-04-11T13:12:43.342Z,6.28
2017-04-11T13:13:46.510Z,8.35
2017-04-11T13:14:51.373Z,10.15
2017-04-11T13:15:55.028Z,10.57
2017-04-11T13:16:58.931Z,10.70
2017-04-11T13:18:03.707Z,9.22
2017-04-11T13:19:07.201Z,9.82
2017-04-11T13:20:12.822Z,10.20
2017-04-11T13:21:17.045Z,10.18
2017-04-11T13:22:20.860Z,10.17
2017-04-11T13:23:24.709Z,12.98
2017-04-11T13:24:28.398Z,9.55
2017-04-11T13:25:32.258Z,7.98
2017-04-11T13:26:35.954Z,11.60
2017-04-11T13:27:39.861Z,11.12
2017-04-11T13:28:43.618Z,10.15
2017-04-11T13:29:47.623Z,10.43
2017-04-11T13:30:51.371Z,12.77
2017-04-11T13:31:55.311Z,12.22
2017-04-11T13:32:59.579Z,12.12
2017-04-11T13:34:03.591Z,11.03
2017-04-11T13:35:07.398Z,13.22
2017-04-11T13:36:11.114Z,10.98
2017-04-11T13:37:14.906Z,8.38
2017-04-11T13:38:18.938Z,12.35
2017-04-11T13:39:22.560Z,11.22
2017-04-11T13:40:26.912Z,8.97
2017-04-11T13:41:31.040Z,10.73
2017-04-11T13:42:34.759Z,12.03
2017-04-11T13:43:38.541Z,11.82
2017-04-11T13:44:42.454Z,13.00
2017-04-11T13:45:46.228Z,11.45
2017-04-11T13:46:50.912Z,11.83
2017-04-11T13:47:54.961Z,7.85
2017-04-11T13:48:58.822Z,15.12
2017-04-11T13:50:02.543Z,15.40
2017-04-11T13:51:06.587Z,10.47
2017-04-11T13:52:10.401Z,12.70
2017-04-11T13:53:14.095Z,17.05
2017-04-11T13:54:17.793Z,14.97
2017-04-11T13:55:21.540Z,13.65
2017-04-11T13:56:25.180Z,13.68
2017-04-11T13:57:30.047Z,15.40
2017-04-11T13:58:34.197Z,11.15
2017-04-11T13:59:37.822Z,18.22
2017-04-11T14:00:41.395Z,16.73
2017-04-11T14:01:45.177Z,10.95
2017-04-11T14:02:49.145Z,14.22